Main page
METAR-TAF:

METAR-TAF

Airports :

Larnaca International Airport

Larnaca, Cyprus

latitude: 34-53N, longitude: 033-38E, elevation: 2 m

Current weather observation

The report was made 7 minutes ago, at 00:30 UTC
Wind 3 kt from the West/Southwest
Temperature 8°C
Humidity 61%
Pressure 1012 hPa
Visibility 10 km or more
no clouds below 1500 m and no cumulonimbus

METAR: LCLK 110030Z 25003KT CAVOK 08/01 Q1012 NOSIG

Time: 03:37 (00:37 UTC)

Forecast

The report was made 1 hour and 7 minutes ago, at 23:30 UTC
Forecast valid from 11 at 00 UTC to 11 at 24 UTC
Wind 9 kt from the North
Visibility 10 km or more
Few clouds at a height of 2500 ft
Becoming
from 11 at 08 UTC to 11 at 11 UTC
Wind 11 kt from the South
Becoming
from 11 at 14 UTC to 11 at 16 UTC
Wind 6 kt from the West/Northwest

TAF: LCLK 102330Z 1100/1124 36009KT 9999 FEW025 BECMG 1108/1111 18011KT BECMG 1114/1116 30006KT

Weather observations and forecasts of more than 4000 airports (METAR and TAF reports).

The available stations are represented by yellow and red dots on the map.

Hover mouse over dot to see the name of the station.

Then click to see weather observations and forecasts.

To change the map : click on the green buttons with a black cross to zoom in, on the green button with a dash to zoom out, or on the green arrows for adjacent maps.


METAR-TAF: